sensor_id;sensor_type;location;lat;lon;timestamp;pressure;altitude;pressure_sealevel;temperature;humidity
59757;BME280;45631;51.962;5.974;2022-12-18T00:02:01;102765.22;;;-4.90;100.00
59757;BME280;45631;51.962;5.974;2022-12-18T00:04:30;102758.28;;;-4.93;100.00
59757;BME280;45631;51.962;5.974;2022-12-18T00:06:58;102760.44;;;-5.07;100.00
59757;BME280;45631;51.962;5.974;2022-12-18T00:09:27;102755.31;;;-5.07;100.00
59757;BME280;45631;51.962;5.974;2022-12-18T00:12:07;102753.28;;;-5.17;100.00
59757;BME280;45631;51.962;5.974;2022-12-18T00:14:41;102749.13;;;-5.14;100.00
59757;BME280;45631;51.962;5.974;2022-12-18T00:17:09;102749.06;;;-5.15;100.00
59757;BME280;45631;51.962;5.974;2022-12-18T00:19:37;102750.63;;;-5.20;100.00
59757;BME280;45631;51.962;5.974;2022-12-18T00:22:05;102749.50;;;-5.29;100.00
59757;BME280;45631;51.962;5.974;2022-12-18T00:24:34;102759.94;;;-5.22;100.00
59757;BME280;45631;51.962;5.974;2022-12-18T00:27:02;102760.25;;;-5.13;100.00
59757;BME280;45631;51.962;5.974;2022-12-18T00:29:32;102756.41;;;-5.28;100.00
59757;BME280;45631;51.962;5.974;2022-12-18T00:32:00;102744.25;;;-5.32;100.00
59757;BME280;45631;51.962;5.974;2022-12-18T00:34:28;102742.34;;;-5.39;100.00
59757;BME280;45631;51.962;5.974;2022-12-18T00:36:56;102731.88;;;-5.47;100.00
59757;BME280;45631;51.962;5.974;2022-12-18T00:39:24;102732.47;;;-5.54;100.00
59757;BME280;45631;51.962;5.974;2022-12-18T00:41:52;102723.88;;;-5.56;100.00
59757;BME280;45631;51.962;5.974;2022-12-18T00:44:40;102734.13;;;-5.56;100.00
59757;BME280;45631;51.962;5.974;2022-12-18T00:47:08;102736.66;;;-5.57;100.00
59757;BME280;45631;51.962;5.974;2022-12-18T00:49:36;102732.47;;;-5.54;100.00
59757;BME280;45631;51.962;5.974;2022-12-18T00:52:04;102734.84;;;-5.60;100.00
59757;BME280;45631;51.962;5.974;2022-12-18T00:54:32;102738.28;;;-5.60;100.00
59757;BME280;45631;51.962;5.974;2022-12-18T00:57:00;102745.09;;;-5.60;100.00
59757;BME280;45631;51.962;5.974;2022-12-18T00:59:29;102750.06;;;-5.65;100.00
59757;BME280;45631;51.962;5.974;2022-12-18T01:01:59;102747.63;;;-5.62;100.00
59757;BME280;45631;51.962;5.974;2022-12-18T01:04:27;102755.19;;;-5.65;100.00
59757;BME280;45631;51.962;5.974;2022-12-18T01:06:58;102744.00;;;-5.68;100.00
59757;BME280;45631;51.962;5.974;2022-12-18T01:09:26;102739.41;;;-5.77;100.00
59757;BME280;45631;51.962;5.974;2022-12-18T01:11:57;102749.13;;;-5.68;100.00
59757;BME280;45631;51.962;5.974;2022-12-18T01:14:25;102746.50;;;-5.70;100.00
59757;BME280;45631;51.962;5.974;2022-12-18T01:16:53;102742.16;;;-5.72;100.00
59757;BME280;45631;51.962;5.974;2022-12-18T01:19:23;102730.66;;;-5.84;100.00
59757;BME280;45631;51.962;5.974;2022-12-18T01:21:51;102735.63;;;-5.88;100.00
59757;BME280;45631;51.962;5.974;2022-12-18T01:24:19;102728.94;;;-5.85;100.00
59757;BME280;45631;51.962;5.974;2022-12-18T01:26:47;102717.69;;;-5.88;100.00
59757;BME280;45631;51.962;5.974;2022-12-18T01:29:15;102723.25;;;-6.02;100.00
59757;BME280;45631;51.962;5.974;2022-12-18T01:31:43;102716.28;;;-6.06;100.00
59757;BME280;45631;51.962;5.974;2022-12-18T01:34:11;102716.75;;;-6.18;100.00
59757;BME280;45631;51.962;5.974;2022-12-18T01:36:41;102721.22;;;-6.12;100.00
59757;BME280;45631;51.962;5.974;2022-12-18T01:39:11;102730.03;;;-6.04;100.00
59757;BME280;45631;51.962;5.974;2022-12-18T01:41:40;102730.13;;;-6.01;100.00
59757;BME280;45631;51.962;5.974;2022-12-18T01:47:32;102745.63;;;-6.22;100.00
59757;BME280;45631;51.962;5.974;2022-12-18T01:50:03;102743.81;;;-6.24;100.00
59757;BME280;45631;51.962;5.974;2022-12-18T01:52:34;102747.59;;;-6.15;100.00
59757;BME280;45631;51.962;5.974;2022-12-18T01:55:06;102745.75;;;-6.19;100.00
59757;BME280;45631;51.962;5.974;2022-12-18T01:57:34;102733.72;;;-6.21;100.00
59757;BME280;45631;51.962;5.974;2022-12-18T02:00:07;102732.88;;;-6.20;100.00
59757;BME280;45631;51.962;5.974;2022-12-18T02:02:35;102732.72;;;-6.25;100.00
59757;BME280;45631;51.962;5.974;2022-12-18T02:05:04;102735.09;;;-6.31;100.00
59757;BME280;45631;51.962;5.974;2022-12-18T02:07:42;102744.78;;;-6.22;100.00
59757;BME280;45631;51.962;5.974;2022-12-18T02:10:16;102745.34;;;-6.31;100.00
59757;BME280;45631;51.962;5.974;2022-12-18T02:12:53;102746.25;;;-6.29;100.00
59757;BME280;45631;51.962;5.974;2022-12-18T02:15:26;102747.94;;;-6.30;100.00
59757;BME280;45631;51.962;5.974;2022-12-18T02:18:03;102737.56;;;-6.33;100.00
59757;BME280;45631;51.962;5.974;2022-12-18T02:20:36;102745.59;;;-6.23;100.00
59757;BME280;45631;51.962;5.974;2022-12-18T02:23:19;102736.84;;;-6.29;100.00
59757;BME280;45631;51.962;5.974;2022-12-18T02:26:04;102739.31;;;-6.32;100.00
59757;BME280;45631;51.962;5.974;2022-12-18T02:28:40;102739.94;;;-6.39;100.00
59757;BME280;45631;51.962;5.974;2022-12-18T02:31:13;102737.09;;;-6.47;100.00
59757;BME280;45631;51.962;5.974;2022-12-18T02:33:41;102739.59;;;-6.48;100.00
59757;BME280;45631;51.962;5.974;2022-12-18T02:36:12;102735.53;;;-6.43;100.00
59757;BME280;45631;51.962;5.974;2022-12-18T02:38:43;102736.19;;;-6.49;100.00
59757;BME280;45631;51.962;5.974;2022-12-18T02:41:14;102733.56;;;-6.50;100.00
59757;BME280;45631;51.962;5.974;2022-12-18T02:43:47;102730.06;;;-6.52;100.00
59757;BME280;45631;51.962;5.974;2022-12-18T02:46:36;102736.94;;;-6.51;100.00
59757;BME280;45631;51.962;5.974;2022-12-18T02:49:13;102731.81;;;-6.51;100.00
59757;BME280;45631;51.962;5.974;2022-12-18T02:51:50;102732.34;;;-6.60;100.00
59757;BME280;45631;51.962;5.974;2022-12-18T02:54:38;102731.53;;;-6.59;100.00
59757;BME280;45631;51.962;5.974;2022-12-18T02:57:15;102731.25;;;-6.67;100.00
59757;BME280;45631;51.962;5.974;2022-12-18T02:59:50;102730.38;;;-6.67;100.00
59757;BME280;45631;51.962;5.974;2022-12-18T03:02:24;102728.53;;;-6.71;100.00
59757;BME280;45631;51.962;5.974;2022-12-18T03:04:59;102732.88;;;-6.69;100.00
59757;BME280;45631;51.962;5.974;2022-12-18T03:07:35;102725.91;;;-6.73;100.00
59757;BME280;45631;51.962;5.974;2022-12-18T03:10:09;102727.78;;;-6.69;100.00
59757;BME280;45631;51.962;5.974;2022-12-18T03:12:44;102726.72;;;-6.74;100.00
59757;BME280;45631;51.962;5.974;2022-12-18T03:15:18;102723.97;;;-6.80;100.00
59757;BME280;45631;51.962;5.974;2022-12-18T03:17:52;102724.13;;;-6.75;100.00
59757;BME280;45631;51.962;5.974;2022-12-18T03:20:26;102721.22;;;-6.85;100.00
59757;BME280;45631;51.962;5.974;2022-12-18T03:23:01;102714.25;;;-6.89;100.00
59757;BME280;45631;51.962;5.974;2022-12-18T03:25:33;102713.59;;;-6.83;100.00
59757;BME280;45631;51.962;5.974;2022-12-18T03:28:06;102719.41;;;-6.87;100.00
59757;BME280;45631;51.962;5.974;2022-12-18T03:30:37;102716.09;;;-6.85;100.00
59757;BME280;45631;51.962;5.974;2022-12-18T03:33:09;102706.63;;;-6.87;100.00
59757;BME280;45631;51.962;5.974;2022-12-18T03:35:40;102704.91;;;-6.88;100.00
59757;BME280;45631;51.962;5.974;2022-12-18T03:38:10;102702.53;;;-6.82;100.00
59757;BME280;45631;51.962;5.974;2022-12-18T03:40:45;102696.28;;;-6.90;100.00
59757;BME280;45631;51.962;5.974;2022-12-18T03:43:28;102698.84;;;-6.90;100.00
59757;BME280;45631;51.962;5.974;2022-12-18T03:46:02;102688.50;;;-6.93;100.00
59757;BME280;45631;51.962;5.974;2022-12-18T03:48:39;102681.34;;;-7.02;100.00
59757;BME280;45631;51.962;5.974;2022-12-18T03:51:13;102692.22;;;-7.08;100.00
59757;BME280;45631;51.962;5.974;2022-12-18T03:53:48;102689.75;;;-7.05;100.00
59757;BME280;45631;51.962;5.974;2022-12-18T03:56:20;102685.75;;;-6.98;100.00
59757;BME280;45631;51.962;5.974;2022-12-18T03:58:52;102688.50;;;-6.93;100.00
59757;BME280;45631;51.962;5.974;2022-12-18T04:01:25;102688.97;;;-7.04;100.00
59757;BME280;45631;51.962;5.974;2022-12-18T04:03:59;102689.91;;;-7.02;100.00
59757;BME280;45631;51.962;5.974;2022-12-18T04:06:28;102686.59;;;-6.99;100.00
59757;BME280;45631;51.962;5.974;2022-12-18T04:08:58;102677.66;;;-6.86;100.00
59757;BME280;45631;51.962;5.974;2022-12-18T04:11:26;102680.72;;;-6.97;100.00
59757;BME280;45631;51.962;5.974;2022-12-18T04:13:57;102688.31;;;-6.98;100.00
59757;BME280;45631;51.962;5.974;2022-12-18T04:16:26;102681.41;;;-7.01;100.00
59757;BME280;45631;51.962;5.974;2022-12-18T04:18:54;102682.78;;;-7.09;100.00
59757;BME280;45631;51.962;5.974;2022-12-18T04:21:22;102683.03;;;-7.03;100.00
59757;BME280;45631;51.962;5.974;2022-12-18T04:23:50;102677.88;;;-7.04;100.00
59757;BME280;45631;51.962;5.974;2022-12-18T04:26:18;102675.25;;;-7.06;100.00
59757;BME280;45631;51.962;5.974;2022-12-18T04:28:47;102676.16;;;-7.04;100.00
59757;BME280;45631;51.962;5.974;2022-12-18T04:31:16;102665.88;;;-7.05;100.00
59757;BME280;45631;51.962;5.974;2022-12-18T04:33:44;102666.47;;;-7.13;100.00
59757;BME280;45631;51.962;5.974;2022-12-18T04:36:12;102656.28;;;-7.11;100.00
59757;BME280;45631;51.962;5.974;2022-12-18T04:38:40;102661.25;;;-7.16;100.00
59757;BME280;45631;51.962;5.974;2022-12-18T04:41:09;102664.19;;;-7.05;100.00
59757;BME280;45631;51.962;5.974;2022-12-18T04:43:39;102658.06;;;-7.10;100.00
59757;BME280;45631;51.962;5.974;2022-12-18T04:46:08;102658.91;;;-7.09;100.00
59757;BME280;45631;51.962;5.974;2022-12-18T04:48:38;102664.84;;;-7.10;100.00
59757;BME280;45631;51.962;5.974;2022-12-18T04:51:06;102664.13;;;-7.06;100.00
59757;BME280;45631;51.962;5.974;2022-12-18T04:53:34;102666.63;;;-7.08;100.00
59757;BME280;45631;51.962;5.974;2022-12-18T04:56:05;102671.75;;;-7.08;100.00
59757;BME280;45631;51.962;5.974;2022-12-18T04:58:34;102670.00;;;-7.09;100.00
59757;BME280;45631;51.962;5.974;2022-12-18T05:01:02;102669.19;;;-7.08;100.00
59757;BME280;45631;51.962;5.974;2022-12-18T05:03:31;102663.91;;;-7.13;100.00
59757;BME280;45631;51.962;5.974;2022-12-18T05:06:01;102662.16;;;-7.14;100.00
59757;BME280;45631;51.962;5.974;2022-12-18T05:08:29;102660.09;;;-7.24;100.00
59757;BME280;45631;51.962;5.974;2022-12-18T05:10:58;102664.31;;;-7.24;100.00
59757;BME280;45631;51.962;5.974;2022-12-18T05:13:27;102672.03;;;-7.23;100.00
59757;BME280;45631;51.962;5.974;2022-12-18T05:15:56;102681.31;;;-7.26;100.00
59757;BME280;45631;51.962;5.974;2022-12-18T05:18:27;102679.50;;;-7.29;100.00
59757;BME280;45631;51.962;5.974;2022-12-18T05:20:55;102690.59;;;-7.28;100.00
59757;BME280;45631;51.962;5.974;2022-12-18T05:23:25;102694.31;;;-7.20;100.00
59757;BME280;45631;51.962;5.974;2022-12-18T05:25:56;102693.25;;;-7.25;100.00
59757;BME280;45631;51.962;5.974;2022-12-18T05:28:27;102710.47;;;-7.21;100.00
59757;BME280;45631;51.962;5.974;2022-12-18T05:30:57;102711.06;;;-7.28;100.00
59757;BME280;45631;51.962;5.974;2022-12-18T05:33:27;102715.38;;;-7.27;100.00
59757;BME280;45631;51.962;5.974;2022-12-18T05:35:57;102728.03;;;-7.31;100.00
59757;BME280;45631;51.962;5.974;2022-12-18T05:38:28;102721.66;;;-7.40;100.00
59757;BME280;45631;51.962;5.974;2022-12-18T05:40:57;102739.66;;;-7.39;100.00
59757;BME280;45631;51.962;5.974;2022-12-18T05:43:27;102731.09;;;-7.39;100.00
59757;BME280;45631;51.962;5.974;2022-12-18T05:45:55;102729.59;;;-7.34;100.00
59757;BME280;45631;51.962;5.974;2022-12-18T05:48:24;102729.28;;;-7.42;100.00
59757;BME280;45631;51.962;5.974;2022-12-18T05:50:52;102727.41;;;-7.46;100.00
59757;BME280;45631;51.962;5.974;2022-12-18T05:53:20;102734.28;;;-7.45;100.00
59757;BME280;45631;51.962;5.974;2022-12-18T05:55:50;102719.09;;;-7.40;100.00
59757;BME280;45631;51.962;5.974;2022-12-18T05:58:18;102705.16;;;-7.49;100.00
59757;BME280;45631;51.962;5.974;2022-12-18T06:00:46;102703.28;;;-7.53;100.00
59757;BME280;45631;51.962;5.974;2022-12-18T06:03:14;102702.44;;;-7.53;100.00
59757;BME280;45631;51.962;5.974;2022-12-18T06:05:44;102695.94;;;-7.45;100.00
59757;BME280;45631;51.962;5.974;2022-12-18T06:08:13;102687.41;;;-7.45;100.00
59757;BME280;45631;51.962;5.974;2022-12-18T06:10:41;102677.34;;;-7.41;100.00
59757;BME280;45631;51.962;5.974;2022-12-18T06:13:11;102674.84;;;-7.39;100.00
59757;BME280;45631;51.962;5.974;2022-12-18T06:15:39;102678.63;;;-7.52;100.00
59757;BME280;45631;51.962;5.974;2022-12-18T06:18:10;102665.31;;;-7.43;100.00
59757;BME280;45631;51.962;5.974;2022-12-18T06:20:38;102669.63;;;-7.42;100.00
59757;BME280;45631;51.962;5.974;2022-12-18T06:23:08;102673.03;;;-7.42;100.00
59757;BME280;45631;51.962;5.974;2022-12-18T06:25:37;102670.38;;;-7.45;100.00
59757;BME280;45631;51.962;5.974;2022-12-18T06:28:06;102671.16;;;-7.46;100.00
59757;BME280;45631;51.962;5.974;2022-12-18T06:30:35;102677.03;;;-7.49;100.00
59757;BME280;45631;51.962;5.974;2022-12-18T06:33:03;102667.75;;;-7.47;100.00
59757;BME280;45631;51.962;5.974;2022-12-18T06:35:32;102658.22;;;-7.51;100.00
59757;BME280;45631;51.962;5.974;2022-12-18T06:38:01;102654.16;;;-7.45;100.00
59757;BME280;45631;51.962;5.974;2022-12-18T06:40:29;102656.59;;;-7.49;100.00
59757;BME280;45631;51.962;5.974;2022-12-18T06:42:57;102654.22;;;-7.44;100.00
59757;BME280;45631;51.962;5.974;2022-12-18T06:45:26;102656.59;;;-7.49;100.00
59757;BME280;45631;51.962;5.974;2022-12-18T06:47:57;102654.91;;;-7.48;100.00
59757;BME280;45631;51.962;5.974;2022-12-18T06:50:26;102645.38;;;-7.52;100.00
59757;BME280;45631;51.962;5.974;2022-12-18T06:52:54;102645.34;;;-7.54;100.00
59757;BME280;45631;51.962;5.974;2022-12-18T06:55:22;102641.03;;;-7.55;100.00
59757;BME280;45631;51.962;5.974;2022-12-18T06:57:50;102638.47;;;-7.55;100.00
59757;BME280;45631;51.962;5.974;2022-12-18T07:00:19;102634.28;;;-7.53;100.00
59757;BME280;45631;51.962;5.974;2022-12-18T07:02:50;102633.53;;;-7.50;100.00
59757;BME280;45631;51.962;5.974;2022-12-18T07:05:19;102628.41;;;-7.50;100.00
59757;BME280;45631;51.962;5.974;2022-12-18T07:07:47;102619.13;;;-7.48;100.00
59757;BME280;45631;51.962;5.974;2022-12-18T07:10:16;102624.09;;;-7.51;100.00
59757;BME280;45631;51.962;5.974;2022-12-18T07:12:46;102627.56;;;-7.51;100.00
59757;BME280;45631;51.962;5.974;2022-12-18T07:15:15;102625.84;;;-7.50;100.00
59757;BME280;45631;51.962;5.974;2022-12-18T07:17:43;102623.50;;;-7.45;100.00
59757;BME280;45631;51.962;5.974;2022-12-18T07:20:11;102627.84;;;-7.43;100.00
59757;BME280;45631;51.962;5.974;2022-12-18T07:22:43;102629.56;;;-7.42;100.00
59757;BME280;45631;51.962;5.974;2022-12-18T07:25:11;102636.69;;;-7.35;100.00
59757;BME280;45631;51.962;5.974;2022-12-18T07:27:39;102631.56;;;-7.35;100.00
59757;BME280;45631;51.962;5.974;2022-12-18T07:30:09;102639.44;;;-7.28;100.00
59757;BME280;45631;51.962;5.974;2022-12-18T07:32:37;102628.47;;;-7.26;100.00
59757;BME280;45631;51.962;5.974;2022-12-18T07:35:06;102626.78;;;-7.25;100.00
59757;BME280;45631;51.962;5.974;2022-12-18T07:37:34;102626.00;;;-7.23;100.00
59757;BME280;45631;51.962;5.974;2022-12-18T07:40:04;102629.47;;;-7.22;100.00
59757;BME280;45631;51.962;5.974;2022-12-18T07:42:32;102618.53;;;-7.18;100.00
59757;BME280;45631;51.962;5.974;2022-12-18T07:45:02;102610.81;;;-7.20;100.00
59757;BME280;45631;51.962;5.974;2022-12-18T07:47:30;102610.81;;;-7.20;100.00
59757;BME280;45631;51.962;5.974;2022-12-18T07:49:58;102608.31;;;-7.18;100.00
59757;BME280;45631;51.962;5.974;2022-12-18T07:52:26;102604.09;;;-7.16;100.00
59757;BME280;45631;51.962;5.974;2022-12-18T07:54:55;102593.34;;;-7.07;100.00
59757;BME280;45631;51.962;5.974;2022-12-18T07:57:24;102588.44;;;-7.01;100.00
59757;BME280;45631;51.962;5.974;2022-12-18T08:00:14;102584.31;;;-6.98;100.00
59757;BME280;45631;51.962;5.974;2022-12-18T08:02:43;102588.66;;;-6.95;100.00
59757;BME280;45631;51.962;5.974;2022-12-18T08:05:11;102587.06;;;-6.91;100.00
59757;BME280;45631;51.962;5.974;2022-12-18T08:07:40;102581.94;;;-6.91;100.00
59757;BME280;45631;51.962;5.974;2022-12-18T08:10:08;102581.19;;;-6.89;100.00
59757;BME280;45631;51.962;5.974;2022-12-18T08:12:38;102579.56;;;-6.87;100.00
59757;BME280;45631;51.962;5.974;2022-12-18T08:15:07;102577.16;;;-6.82;100.00
59757;BME280;45631;51.962;5.974;2022-12-18T08:17:35;102575.56;;;-6.78;100.00
59757;BME280;45631;51.962;5.974;2022-12-18T08:20:03;102568.84;;;-6.75;100.00
59757;BME280;45631;51.962;5.974;2022-12-18T08:22:33;102572.44;;;-6.70;100.00
59757;BME280;45631;51.962;5.974;2022-12-18T08:25:02;102561.59;;;-6.63;100.00
59757;BME280;45631;51.962;5.974;2022-12-18T08:27:31;102571.22;;;-6.55;100.00
59757;BME280;45631;51.962;5.974;2022-12-18T08:30:01;102577.44;;;-6.49;100.00
59757;BME280;45631;51.962;5.974;2022-12-18T08:32:31;102570.81;;;-6.42;100.00
59757;BME280;45631;51.962;5.974;2022-12-18T08:34:59;102567.63;;;-6.35;100.00
59757;BME280;45631;51.962;5.974;2022-12-18T08:37:27;102562.81;;;-6.25;100.00
59757;BME280;45631;51.962;5.974;2022-12-18T08:39:56;102560.63;;;-6.13;100.00
59757;BME280;45631;51.962;5.974;2022-12-18T08:42:24;102560.09;;;-6.03;100.00
59757;BME280;45631;51.962;5.974;2022-12-18T08:45:11;102565.56;;;-5.90;100.00
59757;BME280;45631;51.962;5.974;2022-12-18T08:47:39;102572.59;;;-5.85;100.00
59757;BME280;45631;51.962;5.974;2022-12-18T08:50:09;102572.88;;;-5.74;100.00
59757;BME280;45631;51.962;5.974;2022-12-18T08:52:38;102569.69;;;-5.67;100.00
59757;BME280;45631;51.962;5.974;2022-12-18T08:55:08;102571.81;;;-5.53;100.00
59757;BME280;45631;51.962;5.974;2022-12-18T08:57:36;102567.81;;;-5.44;100.00
59757;BME280;45631;51.962;5.974;2022-12-18T09:00:05;102565.56;;;-5.33;100.00
59757;BME280;45631;51.962;5.974;2022-12-18T09:02:35;102562.34;;;-5.24;100.00
59757;BME280;45631;51.962;5.974;2022-12-18T09:05:04;102555.63;;;-5.20;100.00
59757;BME280;45631;51.962;5.974;2022-12-18T09:07:32;102562.84;;;-5.07;100.00
59757;BME280;45631;51.962;5.974;2022-12-18T09:10:01;102563.72;;;-5.05;100.00
59757;BME280;45631;51.962;5.974;2022-12-18T09:12:29;102566.59;;;-4.94;100.00
59757;BME280;45631;51.962;5.974;2022-12-18T09:14:57;102562.56;;;-4.84;100.00
59757;BME280;45631;51.962;5.974;2022-12-18T09:17:25;102564.63;;;-4.71;100.00
59757;BME280;45631;51.962;5.974;2022-12-18T09:19:57;102552.09;;;-4.59;100.00
59757;BME280;45631;51.962;5.974;2022-12-18T09:22:25;102559.28;;;-4.45;100.00
59757;BME280;45631;51.962;5.974;2022-12-18T09:24:54;102555.00;;;-4.45;100.00
59757;BME280;45631;51.962;5.974;2022-12-18T09:27:22;102551.28;;;-4.21;100.00
59757;BME280;45631;51.962;5.974;2022-12-18T09:29:50;102545.38;;;-4.18;100.00
59757;BME280;45631;51.962;5.974;2022-12-18T09:32:18;102551.38;;;-4.18;100.00
59757;BME280;45631;51.962;5.974;2022-12-18T09:34:48;102554.38;;;-3.99;100.00
59757;BME280;45631;51.962;5.974;2022-12-18T09:37:17;102554.22;;;-4.05;100.00
59757;BME280;45631;51.962;5.974;2022-12-18T09:39:45;102556.78;;;-4.05;100.00
59757;BME280;45631;51.962;5.974;2022-12-18T09:42:19;102552.09;;;-3.85;100.00
59757;BME280;45631;51.962;5.974;2022-12-18T09:44:50;102545.31;;;-3.82;100.00
59757;BME280;45631;51.962;5.974;2022-12-18T09:47:21;102554.72;;;-3.82;100.00
59757;BME280;45631;51.962;5.974;2022-12-18T09:49:55;102549.84;;;-3.70;100.00
59757;BME280;45631;51.962;5.974;2022-12-18T09:52:29;102541.31;;;-3.69;100.00
59757;BME280;45631;51.962;5.974;2022-12-18T09:55:01;102539.69;;;-3.65;100.00
59757;BME280;45631;51.962;5.974;2022-12-18T09:57:32;102534.88;;;-3.47;100.00
59757;BME280;45631;51.962;5.974;2022-12-18T10:00:11;102534.06;;;-3.46;100.00
59757;BME280;45631;51.962;5.974;2022-12-18T10:02:42;102530.75;;;-3.40;100.00
59757;BME280;45631;51.962;5.974;2022-12-18T10:05:13;102524.78;;;-3.37;100.00
59757;BME280;45631;51.962;5.974;2022-12-18T10:07:54;102513.69;;;-3.35;100.00
59757;BME280;45631;51.962;5.974;2022-12-18T10:10:34;102512.09;;;-3.30;100.00
59757;BME280;45631;51.962;5.974;2022-12-18T10:13:15;102513.78;;;-3.30;100.00
59757;BME280;45631;51.962;5.974;2022-12-18T10:15:57;102516.50;;;-3.23;100.00
59757;BME280;45631;51.962;5.974;2022-12-18T10:18:45;102521.69;;;-3.19;100.00
59757;BME280;45631;51.962;5.974;2022-12-18T10:21:17;102518.44;;;-3.11;100.00
59757;BME280;45631;51.962;5.974;2022-12-18T10:23:57;102510.78;;;-3.08;100.00
59757;BME280;45631;51.962;5.974;2022-12-18T10:26:28;102504.81;;;-3.05;100.00
59757;BME280;45631;51.962;5.974;2022-12-18T10:28:57;102495.53;;;-2.95;100.00
59757;BME280;45631;51.962;5.974;2022-12-18T10:31:31;102492.16;;;-2.91;100.00
59757;BME280;45631;51.962;5.974;2022-12-18T10:33:59;102483.69;;;-2.85;100.00
59757;BME280;45631;51.962;5.974;2022-12-18T10:36:27;102488.03;;;-2.81;100.00
59757;BME280;45631;51.962;5.974;2022-12-18T10:39:14;102476.13;;;-2.76;100.00
59757;BME280;45631;51.962;5.974;2022-12-18T10:41:45;102472.75;;;-2.72;100.00
59757;BME280;45631;51.962;5.974;2022-12-18T10:44:17;102472.91;;;-2.63;100.00
59757;BME280;45631;51.962;5.974;2022-12-18T10:46:46;102472.97;;;-2.57;100.00
59757;BME280;45631;51.962;5.974;2022-12-18T10:49:21;102476.47;;;-2.53;100.00
59757;BME280;45631;51.962;5.974;2022-12-18T10:51:50;102479.13;;;-2.48;100.00
59757;BME280;45631;51.962;5.974;2022-12-18T10:54:22;102466.28;;;-2.45;100.00
59757;BME280;45631;51.962;5.974;2022-12-18T10:56:51;102463.84;;;-2.36;100.00
59757;BME280;45631;51.962;5.974;2022-12-18T10:59:19;102451.91;;;-2.28;100.00
59757;BME280;45631;51.962;5.974;2022-12-18T11:01:50;102440.81;;;-2.24;100.00
59757;BME280;45631;51.962;5.974;2022-12-18T11:04:21;102441.72;;;-2.20;100.00
59757;BME280;45631;51.962;5.974;2022-12-18T11:06:55;102447.81;;;-2.15;100.00
59757;BME280;45631;51.962;5.974;2022-12-18T11:09:26;102447.88;;;-2.10;100.00
59757;BME280;45631;51.962;5.974;2022-12-18T11:11:57;102450.56;;;-2.02;100.00
59757;BME280;45631;51.962;5.974;2022-12-18T11:14:28;102448.00;;;-2.01;100.00
59757;BME280;45631;51.962;5.974;2022-12-18T11:16:58;102439.44;;;-1.97;100.00
59757;BME280;45631;51.962;5.974;2022-12-18T11:19:53;102440.34;;;-1.96;100.00
59757;BME280;45631;51.962;5.974;2022-12-18T11:22:24;102437.75;;;-1.95;100.00
59757;BME280;45631;51.962;5.974;2022-12-18T11:24:58;102437.81;;;-1.89;100.00
59757;BME280;45631;51.962;5.974;2022-12-18T11:27:52;102429.31;;;-1.81;100.00
59757;BME280;45631;51.962;5.974;2022-12-18T11:30:23;102418.94;;;-1.88;100.00
59757;BME280;45631;51.962;5.974;2022-12-18T11:32:58;102410.41;;;-1.80;100.00
59757;BME280;45631;51.962;5.974;2022-12-18T11:35:36;102400.16;;;-1.76;100.00
59757;BME280;45631;51.962;5.974;2022-12-18T11:38:13;102393.34;;;-1.69;100.00
59757;BME280;45631;51.962;5.974;2022-12-18T11:40:51;102392.47;;;-1.68;100.00
59757;BME280;45631;51.962;5.974;2022-12-18T11:43:26;102401.97;;;-1.64;100.00
59757;BME280;45631;51.962;5.974;2022-12-18T11:45:59;102399.50;;;-1.56;100.00
59757;BME280;45631;51.962;5.974;2022-12-18T11:48:32;102395.25;;;-1.51;100.00
59757;BME280;45631;51.962;5.974;2022-12-18T11:51:04;102408.13;;;-1.52;100.00
59757;BME280;45631;51.962;5.974;2022-12-18T11:53:33;102398.75;;;-1.44;100.00
59757;BME280;45631;51.962;5.974;2022-12-18T11:56:23;102399.59;;;-1.47;100.00
59757;BME280;45631;51.962;5.974;2022-12-18T11:58:59;102390.13;;;-1.45;100.00
59757;BME280;45631;51.962;5.974;2022-12-18T12:01:42;102391.03;;;-1.40;100.00
59757;BME280;45631;51.962;5.974;2022-12-18T12:04:40;102376.47;;;-1.33;100.00
59757;BME280;45631;51.962;5.974;2022-12-18T12:07:21;102366.16;;;-1.30;100.00
59757;BME280;45631;51.962;5.974;2022-12-18T12:09:58;102365.31;;;-1.30;100.00
59757;BME280;45631;51.962;5.974;2022-12-18T12:12:39;102360.16;;;-1.30;100.00
59757;BME280;45631;51.962;5.974;2022-12-18T12:15:23;102355.06;;;-1.21;100.00
59757;BME280;45631;51.962;5.974;2022-12-18T12:17:58;102348.16;;;-1.25;100.00
59757;BME280;45631;51.962;5.974;2022-12-18T12:20:45;102353.34;;;-1.24;100.00
59757;BME280;45631;51.962;5.974;2022-12-18T12:23:26;102343.03;;;-1.21;100.00
59757;BME280;45631;51.962;5.974;2022-12-18T12:26:01;102336.16;;;-1.18;100.00
59757;BME280;45631;51.962;5.974;2022-12-18T12:31:33;102346.56;;;-1.08;100.00
59757;BME280;45631;51.962;5.974;2022-12-18T12:34:15;102356.94;;;-1.05;100.00
59757;BME280;45631;51.962;5.974;2022-12-18T12:37:04;102343.16;;;-1.02;100.00
59757;BME280;45631;51.962;5.974;2022-12-18T12:39:37;102333.69;;;-1.02;100.00
59757;BME280;45631;51.962;5.974;2022-12-18T12:42:13;102331.13;;;-0.98;100.00
59757;BME280;45631;51.962;5.974;2022-12-18T12:45:05;102329.41;;;-0.98;100.00
59757;BME280;45631;51.962;5.974;2022-12-18T12:47:38;102319.97;;;-0.94;100.00
59757;BME280;45631;51.962;5.974;2022-12-18T12:50:14;102318.22;;;-0.97;100.00
59757;BME280;45631;51.962;5.974;2022-12-18T12:52:46;102315.63;;;-0.97;100.00
59757;BME280;45631;51.962;5.974;2022-12-18T12:55:19;102309.63;;;-0.93;100.00
59757;BME280;45631;51.962;5.974;2022-12-18T12:57:56;102307.94;;;-0.91;100.00
59757;BME280;45631;51.962;5.974;2022-12-18T13:00:30;102300.19;;;-0.89;100.00
59757;BME280;45631;51.962;5.974;2022-12-18T13:03:12;102289.84;;;-0.92;100.00
59757;BME280;45631;51.962;5.974;2022-12-18T13:05:48;102290.69;;;-0.90;100.00
59757;BME280;45631;51.962;5.974;2022-12-18T13:08:23;102292.44;;;-0.88;100.00
59757;BME280;45631;51.962;5.974;2022-12-18T13:10:53;102298.50;;;-0.86;100.00